Time;durP1;ratioP1;P1;durP2;ratioP2;P2;SDS_P1;SDS_P2;PMS_P1;PMS_P2;Temp;Humidity;BMP_temperature;BMP_pressure;BME280_temperature;BME280_humidity;BME280_pressure;Samples;Min_cycle;Max_cycle;Signal;HPM_P1;HPM_P2
2023/08/18 00:00:00;;;;;;;5.88;3.25;;;24.20;70.60;;;;;;5025502;28;20457;-68
2023/08/18 00:02:27;;;;;;;6.05;3.35;;;24.10;71.20;;;;;;5019015;28;20057;-69
2023/08/18 00:04:52;;;;;;;5.35;3.38;;;24.20;69.50;;;;;;5021219;28;20136;-68
2023/08/18 00:07:18;;;;;;;4.07;2.92;;;24.10;70.90;;;;;;5017902;28;20108;-70
2023/08/18 00:09:44;;;;;;;9.25;3.70;;;23.90;71.10;;;;;;5022820;28;20578;-68
2023/08/18 00:12:10;;;;;;;10.37;3.23;;;24.00;72.00;;;;;;5018923;28;20545;-72
2023/08/18 00:14:36;;;;;;;9.30;3.33;;;23.80;72.60;;;;;;5023968;28;20054;-70
2023/08/18 00:17:02;;;;;;;4.28;3.35;;;23.80;73.70;;;;;;5018435;28;20072;-69
2023/08/18 00:19:28;;;;;;;7.88;3.42;;;23.80;73.90;;;;;;5019506;28;20061;-70
2023/08/18 00:21:53;;;;;;;5.60;3.50;;;23.70;74.40;;;;;;5016119;28;20152;-67
2023/08/18 00:24:19;;;;;;;5.57;3.37;;;23.70;71.90;;;;;;5020252;28;20041;-71
2023/08/18 00:26:48;;;;;;;8.50;3.70;;;23.60;76.90;;;;;;5023182;28;20021;-69
2023/08/18 00:29:14;;;;;;;4.82;3.55;;;23.50;74.30;;;;;;5020933;28;20042;-72
2023/08/18 00:31:40;;;;;;;4.68;3.40;;;23.60;71.90;;;;;;5021586;28;20028;-73
2023/08/18 00:34:05;;;;;;;8.48;3.10;;;23.40;72.00;;;;;;5018783;28;20041;-69
2023/08/18 00:36:32;;;;;;;8.83;4.10;;;23.60;71.70;;;;;;5010275;28;20025;-73
2023/08/18 00:39:02;;;;;;;;;;;23.60;71.70;;;;;;5016131;28;20060;-68
2023/08/18 00:41:28;;;;;;;6.13;3.45;;;23.50;72.10;;;;;;5020191;28;20035;-73
2023/08/18 00:43:53;;;;;;;4.88;3.55;;;23.50;72.00;;;;;;5018225;28;20409;-74
2023/08/18 00:46:21;;;;;;;7.20;3.53;;;23.60;71.90;;;;;;5010934;28;20042;-68
2023/08/18 00:48:48;;;;;;;6.72;3.25;;;23.50;72.10;;;;;;5022219;28;20128;-68
2023/08/18 00:51:14;;;;;;;10.85;3.83;;;23.60;71.80;;;;;;5019017;28;20467;-69
2023/08/18 00:53:43;;;;;;;9.77;4.47;;;23.50;72.30;;;;;;5016560;28;20069;-69
2023/08/18 00:56:09;;;;;;;6.85;3.97;;;23.40;72.40;;;;;;5016007;28;20042;-71
2023/08/18 00:58:36;;;;;;;;;;;23.50;72.50;;;;;;5015579;28;20092;-71
2023/08/18 01:01:02;;;;;;;8.57;3.42;;;23.30;73.30;;;;;;5019574;28;20007;-69
2023/08/18 01:03:31;;;;;;;8.25;3.83;;;23.30;75.90;;;;;;5015223;28;20038;-69
2023/08/18 01:05:58;;;;;;;6.25;3.67;;;23.20;77.90;;;;;;5018886;28;20481;-69
2023/08/18 01:08:24;;;;;;;8.75;3.65;;;23.10;74.90;;;;;;5014071;28;20392;-72
2023/08/18 01:11:09;;;;;;;3.30;3.00;;;23.10;76.40;;;;;;5023159;28;20037;-72
2023/08/18 01:13:37;;;;;;;8.77;3.75;;;22.90;77.60;;;;;;5015934;28;20063;-72
2023/08/18 01:16:05;;;;;;;5.82;4.07;;;23.00;76.80;;;;;;5017583;28;20100;-73
2023/08/18 01:18:33;;;;;;;7.32;3.78;;;23.00;76.50;;;;;;5021124;28;20030;-73
2023/08/18 01:21:03;;;;;;;7.93;3.72;;;23.00;78.00;;;;;;5022353;28;20031;-73
2023/08/18 01:23:39;;;;;;;8.85;3.42;;;22.90;77.30;;;;;;5013498;28;20480;-70
2023/08/18 01:26:05;;;;;;;4.93;3.20;;;22.70;77.90;;;;;;5036060;28;20032;-69
2023/08/18 01:28:32;;;;;;;7.83;4.63;;;22.70;79.90;;;;;;5026307;28;20036;-67
2023/08/18 01:30:59;;;;;;;6.80;3.85;;;22.60;80.80;;;;;;5022305;28;20017;-72
2023/08/18 01:33:40;;;;;;;9.07;4.05;;;22.60;79.80;;;;;;5020636;28;20037;-69
2023/08/18 01:36:11;;;;;;;5.28;3.58;;;22.40;79.00;;;;;;5014694;28;20053;-70
2023/08/18 01:38:38;;;;;;;9.15;3.70;;;22.40;79.40;;;;;;5019885;28;20057;-70
2023/08/18 01:41:07;;;;;;;;;;;22.40;79.80;;;;;;5022930;28;20033;-70
2023/08/18 01:43:33;;;;;;;8.43;3.75;;;22.40;80.20;;;;;;5018797;28;19905;-73
2023/08/18 01:46:02;;;;;;;8.65;3.83;;;22.20;82.10;;;;;;5013301;28;20099;-72
2023/08/18 01:48:27;;;;;;;8.40;3.70;;;22.30;78.10;;;;;;5020947;28;20037;-72
2023/08/18 01:50:53;;;;;;;3.67;3.27;;;22.30;81.20;;;;;;5017634;28;20025;-72
2023/08/18 01:53:18;;;;;;;5.75;3.80;;;22.40;78.50;;;;;;5014997;28;20824;-68
2023/08/18 01:55:44;;;;;;;8.37;3.80;;;22.70;75.70;;;;;;5016491;28;20061;-71
2023/08/18 01:58:10;;;;;;;6.63;3.57;;;22.60;78.50;;;;;;5020344;28;20100;-72
2023/08/18 02:00:35;;;;;;;5.20;3.70;;;22.60;78.00;;;;;;5024436;28;20080;-69
2023/08/18 02:03:01;;;;;;;10.97;3.70;;;22.50;80.30;;;;;;5019603;28;20549;-71
2023/08/18 02:05:27;;;;;;;6.50;3.83;;;22.20;81.50;;;;;;5024573;28;20080;-68
2023/08/18 02:07:53;;;;;;;5.23;3.73;;;22.10;82.30;;;;;;5018904;28;20286;-68
2023/08/18 02:10:19;;;;;;;8.40;3.70;;;22.00;80.60;;;;;;5021806;28;21181;-69
2023/08/18 02:12:44;;;;;;;4.33;3.93;;;22.20;80.00;;;;;;5018451;28;20091;-68
2023/08/18 02:15:10;;;;;;;4.93;3.80;;;22.10;80.70;;;;;;5023555;28;20034;-72
2023/08/18 02:17:36;;;;;;;9.00;3.55;;;22.20;81.00;;;;;;5021774;28;20083;-73
2023/08/18 02:20:03;;;;;;;7.17;3.83;;;22.00;80.30;;;;;;5025679;28;20081;-72
2023/08/18 02:22:29;;;;;;;6.68;3.97;;;22.10;78.90;;;;;;5022732;28;20105;-72
2023/08/18 02:24:55;;;;;;;4.93;3.75;;;22.30;77.70;;;;;;5016898;28;20124;-72
2023/08/18 02:27:21;;;;;;;4.13;3.60;;;22.40;77.50;;;;;;5020884;28;20045;-69
2023/08/18 02:29:47;;;;;;;6.63;4.38;;;22.40;77.60;;;;;;5018508;28;20311;-70
2023/08/18 02:32:13;;;;;;;9.45;4.28;;;22.30;77.40;;;;;;5023305;28;20036;-69
2023/08/18 02:34:39;;;;;;;9.02;3.78;;;22.50;77.00;;;;;;5021174;28;20045;-72
2023/08/18 02:37:05;;;;;;;4.93;3.87;;;22.30;78.30;;;;;;5016876;28;20030;-71
2023/08/18 02:39:30;;;;;;;4.67;3.83;;;22.20;78.60;;;;;;5018918;28;20088;-72
2023/08/18 02:41:56;;;;;;;6.00;3.70;;;22.10;79.10;;;;;;5019853;28;20030;-73
2023/08/18 02:44:25;;;;;;;6.60;4.37;;;22.10;80.30;;;;;;5020902;28;20030;-73
2023/08/18 02:46:51;;;;;;;5.40;4.10;;;22.10;79.70;;;;;;5020649;28;20288;-73
2023/08/18 02:49:17;;;;;;;6.57;3.70;;;22.00;80.60;;;;;;5021255;28;20082;-73
2023/08/18 02:51:42;;;;;;;9.98;3.92;;;21.90;82.20;;;;;;5019160;28;20088;-73
2023/08/18 02:54:08;;;;;;;5.37;3.90;;;22.00;79.40;;;;;;5022055;28;20049;-73
2023/08/18 02:56:34;;;;;;;7.37;3.93;;;22.10;81.20;;;;;;5021875;28;20557;-73
2023/08/18 02:58:59;;;;;;;8.53;4.37;;;21.90;79.40;;;;;;5018698;28;20141;-70
2023/08/18 03:01:25;;;;;;;6.30;3.80;;;21.80;79.00;;;;;;5020506;28;20312;-71
2023/08/18 03:03:50;;;;;;;5.77;3.70;;;21.90;79.30;;;;;;5024213;28;20456;-72
2023/08/18 03:06:16;;;;;;;5.90;3.77;;;21.80;82.90;;;;;;5034261;28;20041;-74
2023/08/18 03:08:41;;;;;;;7.37;4.53;;;21.80;80.30;;;;;;5022083;28;20080;-68
2023/08/18 03:11:08;;;;;;;7.73;4.33;;;21.70;82.00;;;;;;5019725;28;20029;-68
2023/08/18 03:13:33;;;;;;;9.05;4.30;;;21.60;83.30;;;;;;5026331;28;20068;-69
2023/08/18 03:15:59;;;;;;;6.28;4.43;;;21.70;80.60;;;;;;5023318;28;20057;-67
2023/08/18 03:18:25;;;;;;;9.63;3.90;;;21.70;81.20;;;;;;5022946;28;20071;-68
2023/08/18 03:20:58;;;;;;;5.47;3.80;;;21.80;80.90;;;;;;5025081;28;20029;-67
2023/08/18 03:23:23;;;;;;;12.32;4.03;;;21.60;81.90;;;;;;5022669;28;20026;-71
2023/08/18 03:25:49;;;;;;;5.20;3.70;;;21.60;80.50;;;;;;5018139;28;20386;-72
2023/08/18 03:28:14;;;;;;;8.40;4.13;;;21.60;81.80;;;;;;5019497;28;20061;-75
2023/08/18 03:30:40;;;;;;;6.23;4.40;;;21.50;83.90;;;;;;5025991;28;20048;-73
2023/08/18 03:33:06;;;;;;;4.43;3.90;;;21.30;83.40;;;;;;5023021;28;20473;-67
2023/08/18 03:35:35;;;;;;;;;;;21.20;85.90;;;;;;5019069;28;20045;-67
2023/08/18 03:38:03;;;;;;;9.48;3.92;;;21.20;83.80;;;;;;5020331;28;19956;-68
2023/08/18 03:40:29;;;;;;;5.65;4.03;;;21.10;86.40;;;;;;5020444;28;20033;-67
2023/08/18 03:42:55;;;;;;;6.50;4.30;;;21.10;83.80;;;;;;5016009;28;20029;-68
2023/08/18 03:45:20;;;;;;;9.57;5.40;;;21.10;85.90;;;;;;5015825;28;20041;-67
2023/08/18 03:47:46;;;;;;;5.27;4.00;;;21.10;85.10;;;;;;5015190;28;20113;-67
2023/08/18 03:50:13;;;;;;;5.47;4.00;;;21.30;81.40;;;;;;5012185;28;20040;-74
2023/08/18 03:52:39;;;;;;;7.68;4.57;;;21.30;83.60;;;;;;5020311;28;20033;-73
2023/08/18 03:55:04;;;;;;;7.57;3.60;;;21.30;82.70;;;;;;5019665;28;20099;-72
2023/08/18 03:57:30;;;;;;;8.68;4.65;;;21.40;82.30;;;;;;5016798;28;20100;-72
2023/08/18 03:59:56;;;;;;;8.18;4.38;;;21.50;80.60;;;;;;5016901;28;20067;-69
2023/08/18 04:02:23;;;;;;;8.85;4.00;;;21.30;83.80;;;;;;5012651;28;20494;-67
2023/08/18 04:04:48;;;;;;;7.53;3.88;;;21.30;83.50;;;;;;5012579;28;20029;-72
2023/08/18 04:07:14;;;;;;;8.57;4.33;;;21.20;84.10;;;;;;5017137;28;20041;-70
2023/08/18 04:09:39;;;;;;;11.10;4.43;;;21.20;83.00;;;;;;5015546;28;20449;-67
2023/08/18 04:12:05;;;;;;;5.27;3.73;;;21.10;84.70;;;;;;5022425;28;20089;-73
2023/08/18 04:14:31;;;;;;;6.03;3.60;;;21.40;81.40;;;;;;5018430;28;20095;-72
2023/08/18 04:16:57;;;;;;;11.30;4.73;;;21.20;82.60;;;;;;5020403;28;20401;-73
2023/08/18 04:19:22;;;;;;;9.17;4.20;;;21.20;83.20;;;;;;5019010;28;20484;-72
2023/08/18 04:21:48;;;;;;;8.63;4.17;;;21.30;81.00;;;;;;5019162;28;20033;-72
2023/08/18 04:24:13;;;;;;;5.17;4.13;;;21.40;80.90;;;;;;5016306;28;20493;-73
2023/08/18 04:26:39;;;;;;;6.10;3.77;;;21.40;80.90;;;;;;5025297;28;20029;-74
2023/08/18 04:29:05;;;;;;;6.10;3.80;;;21.40;81.20;;;;;;5017233;28;20026;-73
2023/08/18 04:31:31;;;;;;;9.10;4.10;;;21.20;83.00;;;;;;5018015;28;20162;-71
2023/08/18 04:33:58;;;;;;;6.00;3.57;;;21.30;82.50;;;;;;5020966;28;20462;-72
2023/08/18 04:36:23;;;;;;;;;;;21.30;81.40;;;;;;5016175;28;20033;-73
2023/08/18 04:38:49;;;;;;;4.97;3.95;;;21.10;85.10;;;;;;5014441;28;19909;-73
2023/08/18 04:41:14;;;;;;;9.90;4.70;;;21.10;82.40;;;;;;5019983;28;20183;-73
2023/08/18 04:43:40;;;;;;;6.17;4.17;;;21.00;83.50;;;;;;5013920;28;20521;-73
2023/08/18 04:46:06;;;;;;;6.60;3.75;;;21.00;83.30;;;;;;5027346;28;20029;-73
2023/08/18 04:48:32;;;;;;;5.73;3.67;;;21.10;81.40;;;;;;5034842;28;20034;-68
2023/08/18 04:50:58;;;;;;;10.18;4.22;;;21.20;81.20;;;;;;5015966;28;20275;-72
2023/08/18 04:53:23;;;;;;;8.97;3.87;;;21.10;82.70;;;;;;5016851;28;20038;-70
2023/08/18 04:55:49;;;;;;;4.87;4.00;;;21.10;82.40;;;;;;5024877;28;20049;-73
2023/08/18 04:58:15;;;;;;;9.07;4.07;;;21.10;83.90;;;;;;5021429;28;20045;-68
2023/08/18 05:00:44;;;;;;;7.82;3.92;;;21.10;82.00;;;;;;5016518;28;20028;-70
2023/08/18 05:03:10;;;;;;;8.77;4.28;;;21.10;82.40;;;;;;5019147;28;20033;-72
2023/08/18 05:05:59;;;;;;;4.43;3.80;;;21.10;82.60;;;;;;5019035;28;20152;-71
2023/08/18 05:08:28;;;;;;;8.90;3.75;;;21.10;83.60;;;;;;5021192;28;20409;-71
2023/08/18 05:10:56;;;;;;;7.55;3.72;;;21.00;83.00;;;;;;5016657;28;20086;-69
2023/08/18 05:13:22;;;;;;;8.65;4.07;;;21.20;82.00;;;;;;5016338;28;20577;-68
2023/08/18 05:15:48;;;;;;;6.10;4.10;;;21.20;81.70;;;;;;5022951;28;20130;-68
2023/08/18 05:18:14;;;;;;;8.63;4.32;;;21.00;83.10;;;;;;5016251;28;20042;-68
2023/08/18 05:20:39;;;;;;;7.07;4.10;;;20.90;83.30;;;;;;5018282;28;20061;-69
2023/08/18 05:23:05;;;;;;;9.07;4.43;;;21.10;83.00;;;;;;5015872;28;20660;-68
2023/08/18 05:25:31;;;;;;;4.72;3.97;;;21.40;82.00;;;;;;5028822;28;20075;-68
2023/08/18 05:27:57;;;;;;;6.47;4.38;;;21.60;80.90;;;;;;5018238;28;20416;-68
2023/08/18 05:30:23;;;;;;;4.60;3.90;;;21.50;81.70;;;;;;5013454;28;20068;-71
2023/08/18 05:32:49;;;;;;;7.32;4.15;;;21.70;79.90;;;;;;5019874;28;20289;-67
2023/08/18 05:35:15;;;;;;;4.50;3.57;;;21.40;80.90;;;;;;5022216;28;20126;-67
2023/08/18 05:37:40;;;;;;;6.70;4.72;;;21.40;81.80;;;;;;5011370;28;20029;-69
2023/08/18 05:40:07;;;;;;;13.53;5.67;;;21.60;81.10;;;;;;5012088;28;20098;-69
2023/08/18 05:42:32;;;;;;;;;;;22.10;79.00;;;;;;5012815;28;20018;-69
2023/08/18 05:44:58;;;;;;;7.22;4.25;;;22.90;77.10;;;;;;5015861;28;19920;-68
2023/08/18 05:47:24;;;;;;;10.70;3.70;;;24.60;71.80;;;;;;5012249;28;20498;-72
2023/08/18 05:49:49;;;;;;;8.98;4.22;;;25.50;68.40;;;;;;5012738;28;20048;-69
2023/08/18 05:52:15;;;;;;;7.17;4.30;;;24.20;70.10;;;;;;5013959;28;20040;-69
2023/08/18 05:54:40;;;;;;;7.50;3.50;;;23.90;70.80;;;;;;5016962;28;20048;-70
2023/08/18 05:57:06;;;;;;;5.50;4.00;;;23.20;73.30;;;;;;5013855;28;20070;-68
2023/08/18 05:59:32;;;;;;;4.50;3.60;;;23.30;73.50;;;;;;5017330;28;20029;-68
2023/08/18 06:01:58;;;;;;;7.05;3.95;;;23.10;74.20;;;;;;5009469;28;20028;-69
2023/08/18 06:04:23;;;;;;;6.80;4.10;;;22.90;75.50;;;;;;5018642;28;20041;-70
2023/08/18 06:06:49;;;;;;;12.73;4.07;;;22.70;75.40;;;;;;5015049;28;20034;-69
2023/08/18 06:09:14;;;;;;;7.80;3.20;;;23.10;74.70;;;;;;5012413;28;20036;-70
2023/08/18 06:11:41;;;;;;;11.13;3.63;;;23.30;73.00;;;;;;5011818;28;20406;-71
2023/08/18 06:14:06;;;;;;;;;;;22.90;75.00;;;;;;5015908;28;20065;-72
2023/08/18 06:16:32;;;;;;;15.45;4.40;;;22.90;76.00;;;;;;5012105;28;19917;-70
2023/08/18 06:18:58;;;;;;;8.30;3.80;;;23.30;75.10;;;;;;5012981;28;20025;-70
2023/08/18 06:21:23;;;;;;;13.73;4.13;;;23.70;74.90;;;;;;5017226;28;20521;-70
2023/08/18 06:23:49;;;;;;;12.47;3.90;;;23.50;78.40;;;;;;5010805;28;20045;-70
2023/08/18 06:26:14;;;;;;;6.80;3.83;;;23.40;75.30;;;;;;5013860;28;20037;-70
2023/08/18 06:28:40;;;;;;;12.60;4.20;;;23.20;76.40;;;;;;5023465;28;20045;-71
2023/08/18 06:31:07;;;;;;;8.70;4.50;;;23.20;76.50;;;;;;5023388;28;20493;-69
2023/08/18 06:33:34;;;;;;;7.07;3.75;;;23.40;76.50;;;;;;5018241;28;20386;-71
2023/08/18 06:36:00;;;;;;;5.32;3.55;;;23.50;76.00;;;;;;5014009;28;20037;-71
2023/08/18 06:38:25;;;;;;;5.20;3.25;;;23.80;76.10;;;;;;5017447;28;20537;-71
2023/08/18 06:40:51;;;;;;;9.00;4.03;;;23.90;78.40;;;;;;5013579;28;20033;-72
2023/08/18 06:43:17;;;;;;;9.17;3.77;;;23.90;76.30;;;;;;5015286;28;20595;-70
2023/08/18 06:45:42;;;;;;;7.97;3.90;;;24.00;76.60;;;;;;5020544;28;20026;-71
2023/08/18 06:48:08;;;;;;;6.47;3.37;;;24.00;79.20;;;;;;5018330;28;20040;-70
2023/08/18 06:50:33;;;;;;;7.80;4.00;;;24.10;75.30;;;;;;5021436;28;20072;-71
2023/08/18 06:52:59;;;;;;;9.77;3.70;;;24.20;78.50;;;;;;5015698;28;20026;-70
2023/08/18 06:55:25;;;;;;;6.45;3.55;;;24.60;77.10;;;;;;5019104;28;20088;-69
2023/08/18 06:57:50;;;;;;;6.67;4.17;;;24.50;76.00;;;;;;5020128;28;20525;-71
2023/08/18 07:00:18;;;;;;;16.50;3.87;;;24.60;76.70;;;;;;5023139;28;20045;-69
2023/08/18 07:02:44;;;;;;;10.35;3.70;;;24.70;78.40;;;;;;5014545;28;20296;-70
2023/08/18 07:05:11;;;;;;;11.45;4.18;;;24.90;78.60;;;;;;5018182;28;20034;-72
2023/08/18 07:07:37;;;;;;;5.40;3.47;;;25.00;76.40;;;;;;5026207;28;20025;-69
2023/08/18 07:10:03;;;;;;;9.43;3.63;;;25.00;76.90;;;;;;5019122;28;20041;-68
2023/08/18 07:12:28;;;;;;;10.60;4.10;;;25.10;77.90;;;;;;5019938;28;20021;-69
2023/08/18 07:14:54;;;;;;;9.23;3.57;;;25.20;77.60;;;;;;5018289;28;20080;-70
2023/08/18 07:17:19;;;;;;;5.30;3.90;;;25.40;73.90;;;;;;5016950;28;20056;-69
2023/08/18 07:19:45;;;;;;;5.40;3.43;;;25.70;72.50;;;;;;5016801;28;20406;-72
2023/08/18 07:22:11;;;;;;;8.43;3.90;;;25.70;73.40;;;;;;5020869;28;20948;-72
2023/08/18 07:24:36;;;;;;;6.50;3.42;;;25.80;70.20;;;;;;5016987;28;20029;-73
2023/08/18 07:27:03;;;;;;;9.90;3.37;;;25.80;72.10;;;;;;5016215;28;20084;-71
2023/08/18 07:29:28;;;;;;;6.07;4.05;;;25.70;75.50;;;;;;5021971;28;20110;-72
2023/08/18 07:31:55;;;;;;;7.88;3.72;;;25.70;74.60;;;;;;5024295;28;20852;-71
2023/08/18 07:34:20;;;;;;;;;;;25.80;75.90;;;;;;5020642;28;20040;-71
2023/08/18 07:36:46;;;;;;;6.40;3.28;;;26.50;70.90;;;;;;5021184;28;19913;-71
2023/08/18 07:39:11;;;;;;;11.53;3.57;;;26.30;72.30;;;;;;5016744;28;20501;-72
2023/08/18 07:41:40;;;;;;;8.57;3.63;;;26.70;69.30;;;;;;5021158;28;20048;-72
2023/08/18 07:44:07;;;;;;;5.43;3.60;;;26.90;69.30;;;;;;5018306;28;20367;-71
2023/08/18 07:46:33;;;;;;;5.93;3.10;;;26.80;68.80;;;;;;5019508;28;20037;-70
2023/08/18 07:48:59;;;;;;;5.40;3.17;;;26.90;67.10;;;;;;5019819;28;20051;-70
2023/08/18 07:51:24;;;;;;;7.33;3.23;;;26.90;67.30;;;;;;5017708;28;20032;-70
2023/08/18 07:53:50;;;;;;;5.35;3.58;;;26.80;67.80;;;;;;5018322;28;20922;-70
2023/08/18 07:56:16;;;;;;;6.93;3.00;;;26.80;68.80;;;;;;5018451;28;20046;-71
2023/08/18 07:58:42;;;;;;;6.35;3.15;;;26.90;70.40;;;;;;5014738;28;20025;-72
2023/08/18 08:01:08;;;;;;;7.03;3.35;;;27.10;72.60;;;;;;5017171;28;20079;-70
2023/08/18 08:03:35;;;;;;;6.50;3.30;;;27.50;69.30;;;;;;5016674;28;20026;-72
2023/08/18 08:06:04;;;;;;;4.75;3.10;;;28.00;70.00;;;;;;5020349;28;20041;-71
2023/08/18 08:08:33;;;;;;;7.18;3.47;;;28.20;67.40;;;;;;5033724;28;21232;-72
2023/08/18 08:10:59;;;;;;;4.82;3.38;;;28.10;66.00;;;;;;5024925;28;20037;-71
2023/08/18 08:13:25;;;;;;;6.15;3.45;;;28.30;64.10;;;;;;5018394;28;20036;-73
2023/08/18 08:15:51;;;;;;;9.73;3.25;;;28.70;65.10;;;;;;5019441;28;20045;-72
2023/08/18 08:18:18;;;;;;;6.68;3.50;;;31.60;65.70;;;;;;5013238;28;20037;-73
2023/08/18 08:20:44;;;;;;;8.27;2.70;;;32.60;58.30;;;;;;5015350;28;20037;-70
2023/08/18 08:23:10;;;;;;;;;;;33.50;52.60;;;;;;5015838;28;20042;-70
2023/08/18 08:25:40;;;;;;;3.80;3.08;;;34.40;55.50;;;;;;5016522;28;20036;-72
2023/08/18 08:28:06;;;;;;;4.22;2.78;;;33.30;56.80;;;;;;5014738;28;20034;-70
2023/08/18 08:30:31;;;;;;;5.95;2.90;;;32.30;57.70;;;;;;5017111;28;20092;-72
2023/08/18 08:32:57;;;;;;;5.72;2.90;;;31.40;57.70;;;;;;5019442;28;20036;-71
2023/08/18 08:35:23;;;;;;;8.00;2.55;;;30.80;59.70;;;;;;5017271;28;20052;-72
2023/08/18 08:37:48;;;;;;;4.32;2.65;;;30.80;59.60;;;;;;5013876;28;20045;-70
2023/08/18 08:40:19;;;;;;;6.15;2.90;;;30.40;58.90;;;;;;5016292;28;20038;-71
2023/08/18 08:42:47;;;;;;;5.75;3.63;;;30.10;61.30;;;;;;5016408;28;20076;-70
2023/08/18 08:45:13;;;;;;;6.35;2.70;;;29.70;58.40;;;;;;5021414;28;20037;-71
2023/08/18 08:47:40;;;;;;;3.65;2.90;;;29.70;59.30;;;;;;5012974;28;20457;-70
2023/08/18 08:50:06;;;;;;;6.03;2.80;;;29.70;60.10;;;;;;5013434;28;20098;-72
2023/08/18 08:52:37;;;;;;;;;;;29.70;58.40;;;;;;5016375;28;20409;-71
2023/08/18 08:55:03;;;;;;;3.20;2.65;;;30.10;60.20;;;;;;5015802;28;19925;-71
2023/08/18 08:57:29;;;;;;;11.75;4.43;;;30.60;57.90;;;;;;5012184;28;20021;-70
2023/08/18 08:59:55;;;;;;;4.28;2.75;;;31.40;59.10;;;;;;5016199;28;20033;-70
2023/08/18 09:02:21;;;;;;;6.95;2.90;;;31.40;58.20;;;;;;5017264;28;20563;-71
2023/08/18 09:04:47;;;;;;;7.63;2.55;;;31.10;60.40;;;;;;5017336;28;20406;-73
2023/08/18 09:07:14;;;;;;;6.35;3.08;;;31.70;59.80;;;;;;5017614;28;20021;-70
2023/08/18 09:09:40;;;;;;;5.82;2.88;;;32.40;55.50;;;;;;5018542;28;20506;-72
2023/08/18 09:12:07;;;;;;;3.95;2.80;;;32.80;53.10;;;;;;5018625;28;20025;-69
2023/08/18 09:14:40;;;;;;;7.78;3.17;;;33.50;55.40;;;;;;5017161;28;20056;-69
2023/08/18 09:17:06;;;;;;;7.45;3.03;;;33.80;54.90;;;;;;5016071;28;20770;-69
2023/08/18 09:19:31;;;;;;;;;;;34.60;53.00;;;;;;5013303;28;20579;-69
2023/08/18 09:21:59;;;;;;;4.82;2.60;;;37.00;49.50;;;;;;5015315;28;20442;-71
2023/08/18 09:24:25;;;;;;;4.50;2.45;;;35.90;52.80;;;;;;5012161;28;20400;-71
2023/08/18 09:26:51;;;;;;;3.10;2.63;;;34.70;54.50;;;;;;5019343;28;20179;-70
2023/08/18 09:29:17;;;;;;;2.63;2.10;;;36.10;49.30;;;;;;5013961;28;20034;-70
2023/08/18 09:31:44;;;;;;;;;;;36.20;50.40;;;;;;5012160;28;20032;-70
2023/08/18 09:34:21;;;;;;;7.05;2.72;;;36.10;51.80;;;;;;5021838;28;19987;-71
2023/08/18 09:36:53;;;;;;;4.82;2.80;;;35.90;49.60;;;;;;5019335;28;20052;-72
2023/08/18 09:39:25;;;;;;;4.88;2.92;;;38.90;55.30;;;;;;5014683;28;20022;-69
2023/08/18 09:41:51;;;;;;;5.70;2.70;;;40.90;49.50;;;;;;5011478;28;20029;-71
2023/08/18 09:44:18;;;;;;;6.60;2.28;;;41.40;45.20;;;;;;5015120;28;20030;-69
2023/08/18 09:46:54;;;;;;;3.78;2.65;;;42.10;45.70;;;;;;5013377;28;20136;-71
2023/08/18 09:49:21;;;;;;;4.88;2.83;;;41.60;45.60;;;;;;5016842;28;20038;-72
2023/08/18 09:52:01;;;;;;;3.80;2.30;;;41.60;46.40;;;;;;5011109;28;20029;-72
2023/08/18 09:54:28;;;;;;;7.30;2.65;;;40.40;46.90;;;;;;5016726;28;21187;-73
2023/08/18 09:57:02;;;;;;;5.03;2.80;;;39.80;44.90;;;;;;5023279;28;20064;-72
2023/08/18 09:59:35;;;;;;;4.75;2.35;;;40.70;50.50;;;;;;5034023;28;20159;-72
2023/08/18 10:02:03;;;;;;;4.10;2.38;;;41.70;45.70;;;;;;5021825;28;20041;-72
2023/08/18 10:04:36;;;;;;;4.90;2.55;;;41.70;43.80;;;;;;5015750;28;20497;-71
2023/08/18 10:07:03;;;;;;;2.50;2.30;;;41.10;43.30;;;;;;5013277;28;20438;-74
2023/08/18 10:09:33;;;;;;;6.50;3.03;;;42.40;43.80;;;;;;5015919;28;20022;-74
2023/08/18 10:12:01;;;;;;;4.47;2.35;;;42.70;44.80;;;;;;5013401;28;20393;-73
2023/08/18 10:14:27;;;;;;;4.65;2.05;;;41.90;41.80;;;;;;5017682;28;20037;-73
2023/08/18 10:16:54;;;;;;;5.10;2.45;;;41.40;42.40;;;;;;5018684;28;20040;-72
2023/08/18 10:20:03;;;;;;;6.25;2.17;;;40.60;42.80;;;;;;5019320;28;20030;-72
2023/08/18 10:22:30;;;;;;;3.90;2.33;;;41.40;46.70;;;;;;4980944;28;20030;-72
2023/08/18 10:24:56;;;;;;;3.70;2.45;;;41.90;42.30;;;;;;4979801;28;20442;-72
2023/08/18 10:27:27;;;;;;;8.05;2.75;;;42.00;43.80;;;;;;5000171;28;20045;-74
2023/08/18 10:29:59;;;;;;;3.95;2.22;;;41.70;42.60;;;;;;5025965;28;20450;-74
2023/08/18 10:32:25;;;;;;;6.03;3.17;;;41.90;43.40;;;;;;5019659;28;20083;-74
2023/08/18 10:34:51;;;;;;;7.20;2.50;;;41.40;42.90;;;;;;5024286;28;20055;-73
2023/08/18 10:37:21;;;;;;;4.82;2.22;;;39.30;43.70;;;;;;5026590;28;20072;-74
2023/08/18 10:39:48;;;;;;;4.07;2.28;;;38.30;46.90;;;;;;5017303;28;20037;-74
2023/08/18 10:42:15;;;;;;;4.95;2.38;;;38.00;45.70;;;;;;5014955;28;20030;-75
2023/08/18 10:45:21;;;;;;;4.55;2.00;;;37.00;48.00;;;;;;5020747;28;20025;-73
2023/08/18 10:47:47;;;;;;;3.67;2.10;;;36.20;45.30;;;;;;5021851;28;20029;-74
2023/08/18 10:50:14;;;;;;;7.63;1.88;;;35.90;45.20;;;;;;5013004;28;20073;-73
2023/08/18 10:52:41;;;;;;;2.80;2.17;;;35.70;46.70;;;;;;5018132;28;20130;-72
2023/08/18 10:55:07;;;;;;;7.47;2.50;;;35.60;47.00;;;;;;5016966;28;20453;-73
2023/08/18 10:57:37;;;;;;;6.53;2.40;;;35.20;46.70;;;;;;5021981;28;20399;-74
2023/08/18 11:00:10;;;;;;;3.30;2.20;;;35.00;46.10;;;;;;5018942;28;20320;-73
2023/08/18 11:02:37;;;;;;;14.00;2.53;;;34.80;46.30;;;;;;5024729;28;20030;-73
2023/08/18 11:05:04;;;;;;;4.72;2.40;;;34.70;47.20;;;;;;5026908;28;20025;-72
2023/08/18 11:07:30;;;;;;;6.28;2.13;;;34.70;47.70;;;;;;5020562;28;20025;-72
2023/08/18 11:09:56;;;;;;;2.95;2.10;;;34.70;48.10;;;;;;5014712;28;20484;-73
2023/08/18 11:12:22;;;;;;;3.28;2.35;;;34.50;48.20;;;;;;5017163;28;20125;-72
2023/08/18 11:14:48;;;;;;;3.00;2.70;;;34.60;49.70;;;;;;5016232;28;20382;-70
2023/08/18 11:17:14;;;;;;;6.63;2.20;;;34.60;49.20;;;;;;5016943;28;20108;-72
2023/08/18 11:19:39;;;;;;;3.53;2.10;;;34.50;50.50;;;;;;5019638;28;20413;-72
2023/08/18 11:22:05;;;;;;;3.33;2.30;;;34.40;49.30;;;;;;5004600;28;20424;-73
2023/08/18 11:24:33;;;;;;;7.40;2.78;;;34.40;48.90;;;;;;5023577;28;20433;-73
2023/08/18 11:27:00;;;;;;;3.45;2.75;;;34.40;47.80;;;;;;5019904;28;20026;-73
2023/08/18 11:29:26;;;;;;;;;;;34.50;47.20;;;;;;5018686;28;20083;-73
2023/08/18 11:31:52;;;;;;;5.93;2.25;;;34.60;48.90;;;;;;5021125;28;19913;-72
2023/08/18 11:34:17;;;;;;;;;;;34.60;48.90;;;;;;5022644;28;20483;-72
2023/08/18 11:36:44;;;;;;;3.45;2.35;;;34.60;47.90;;;;;;5021796;28;19960;-71
2023/08/18 11:39:10;;;;;;;4.20;2.30;;;34.50;46.60;;;;;;5020636;28;20029;-73
2023/08/18 11:41:44;;;;;;;3.22;2.22;;;34.40;47.40;;;;;;5021173;28;20080;-74
2023/08/18 11:44:10;;;;;;;4.43;2.47;;;34.60;48.50;;;;;;5014746;28;20029;-73
2023/08/18 11:46:39;;;;;;;4.50;2.20;;;34.70;48.90;;;;;;5021679;28;20030;-73
2023/08/18 11:49:25;;;;;;;5.22;2.20;;;34.60;48.30;;;;;;5035155;28;20022;-74
2023/08/18 11:51:55;;;;;;;6.45;2.60;;;34.70;48.00;;;;;;5032030;28;20789;-74
2023/08/18 11:54:20;;;;;;;6.38;2.40;;;34.50;46.80;;;;;;5019652;28;20034;-73
2023/08/18 11:56:46;;;;;;;;;;;34.40;46.90;;;;;;5017165;28;20052;-73
2023/08/18 11:59:22;;;;;;;10.48;2.47;;;34.50;47.20;;;;;;5014447;28;19939;-75
2023/08/18 12:01:56;;;;;;;7.43;2.53;;;34.50;46.10;;;;;;5019573;28;20052;-74
2023/08/18 12:04:29;;;;;;;4.07;2.67;;;34.50;46.80;;;;;;5016782;28;20032;-73
2023/08/18 12:06:54;;;;;;;5.05;2.05;;;34.40;46.60;;;;;;5020343;28;20549;-74
2023/08/18 12:09:20;;;;;;;;;;;34.40;46.40;;;;;;5018551;28;20104;-73
2023/08/18 12:11:47;;;;;;;3.38;2.28;;;34.50;46.30;;;;;;5015171;28;19977;-73
2023/08/18 12:14:12;;;;;;;4.65;2.53;;;34.50;49.50;;;;;;5012836;28;20053;-73
2023/08/18 12:16:38;;;;;;;;;;;34.50;46.30;;;;;;5016209;28;20044;-75
2023/08/18 12:19:07;;;;;;;10.82;2.40;;;34.40;46.70;;;;;;5017794;28;20574;-73
2023/08/18 12:21:33;;;;;;;6.63;2.15;;;34.60;46.80;;;;;;5022291;28;20062;-75
2023/08/18 12:24:03;;;;;;;7.32;2.30;;;34.60;46.90;;;;;;5016689;28;20033;-75
2023/08/18 12:26:29;;;;;;;5.78;1.95;;;34.60;46.70;;;;;;5017573;28;20037;-73
2023/08/18 12:28:55;;;;;;;;;;;34.70;44.20;;;;;;5020500;28;20430;-75
2023/08/18 12:31:24;;;;;;;3.55;2.33;;;34.80;45.10;;;;;;5016503;28;19909;-74
2023/08/18 12:33:56;;;;;;;4.68;1.95;;;34.80;45.50;;;;;;5016723;28;20033;-74
2023/08/18 12:36:22;;;;;;;2.50;2.05;;;34.70;45.50;;;;;;5012502;28;20034;-75
2023/08/18 12:38:47;;;;;;;;;;;34.70;45.00;;;;;;5015157;28;20041;-74
2023/08/18 12:41:14;;;;;;;5.32;2.10;;;34.60;45.80;;;;;;5019329;28;19919;-74
2023/08/18 12:43:40;;;;;;;4.38;2.03;;;34.50;45.20;;;;;;5017296;28;20022;-74
2023/08/18 12:46:06;;;;;;;2.70;1.80;;;34.40;45.10;;;;;;5014197;28;20033;-74
2023/08/18 12:48:31;;;;;;;;;;;34.40;46.30;;;;;;5017283;28;20026;-74